createdAt,value
2022-09-12T00:01:21.298Z,14.77
2022-09-12T00:03:52.974Z,15.24
2022-09-12T00:06:24.098Z,15.15
2022-09-12T00:08:55.319Z,14.62
2022-09-12T00:11:22.901Z,14.88
2022-09-12T00:13:50.799Z,14.89
2022-09-12T00:16:24.103Z,14.78
2022-09-12T00:18:52.460Z,15.20
2022-09-12T00:21:22.313Z,14.87
2022-09-12T00:23:51.076Z,15.23
2022-09-12T00:26:20.080Z,15.00
2022-09-12T00:28:49.015Z,15.40
2022-09-12T00:31:20.139Z,15.26
2022-09-12T00:33:48.381Z,14.74
2022-09-12T00:36:18.863Z,14.88
2022-09-12T00:38:48.035Z,14.73
2022-09-12T00:41:21.943Z,14.67
2022-09-12T00:43:52.687Z,14.58
2022-09-12T00:46:42.728Z,14.51
2022-09-12T00:49:30.204Z,14.84
2022-09-12T00:52:05.177Z,14.84
2022-09-12T00:54:36.717Z,15.07
2022-09-12T00:57:07.109Z,14.94
2022-09-12T00:59:40.126Z,14.65
2022-09-12T01:02:09.019Z,14.57
2022-09-12T01:04:37.586Z,14.85
2022-09-12T01:07:06.908Z,14.63
2022-09-12T01:09:35.779Z,14.63
2022-09-12T01:12:04.458Z,14.42
2022-09-12T01:14:33.061Z,14.34
2022-09-12T01:17:01.288Z,14.70
2022-09-12T01:19:47.498Z,14.66
2022-09-12T01:22:33.545Z,14.57
2022-09-12T01:25:43.368Z,14.54
2022-09-12T01:28:23.532Z,14.43
2022-09-12T01:30:54.597Z,14.78
2022-09-12T01:33:46.217Z,15.07
2022-09-12T01:36:34.721Z,15.29
2022-09-12T01:39:06.032Z,14.99
2022-09-12T01:41:47.226Z,15.17
2022-09-12T01:44:49.605Z,15.00
2022-09-12T01:47:31.780Z,14.87
2022-09-12T01:50:07.344Z,14.59
2022-09-12T01:53:00.328Z,14.66
2022-09-12T01:55:47.942Z,14.41
2022-09-12T01:58:26.488Z,14.25
2022-09-12T02:01:09.024Z,14.54
2022-09-12T02:03:45.283Z,14.64
2022-09-12T02:06:35.348Z,14.54
2022-09-12T02:09:16.827Z,14.23
2022-09-12T02:11:45.249Z,14.58
2022-09-12T02:14:27.861Z,14.40
2022-09-12T02:17:07.693Z,14.61
2022-09-12T02:19:51.521Z,14.83
2022-09-12T02:22:22.669Z,14.88
2022-09-12T02:24:54.988Z,14.99
2022-09-12T02:27:26.658Z,15.44
2022-09-12T02:29:54.883Z,15.11
2022-09-12T02:32:28.781Z,15.17
2022-09-12T02:35:07.598Z,15.13
2022-09-12T02:37:50.758Z,14.69
2022-09-12T02:40:19.656Z,15.17
2022-09-12T02:42:47.699Z,14.76
2022-09-12T02:45:16.031Z,14.93
2022-09-12T02:48:00.458Z,14.88
2022-09-12T02:50:28.827Z,15.24
2022-09-12T02:53:04.050Z,15.37
2022-09-12T02:55:36.449Z,15.47
2022-09-12T02:58:07.576Z,15.20
2022-09-12T03:00:40.410Z,14.48
2022-09-12T03:03:45.615Z,14.53
2022-09-12T03:06:34.913Z,15.17
2022-09-12T03:09:36.086Z,14.75
2022-09-12T03:12:20.276Z,14.95
2022-09-12T03:15:10.050Z,14.79
2022-09-12T03:18:21.593Z,14.38
2022-09-12T03:21:05.912Z,14.42
2022-09-12T03:23:44.066Z,14.60
2022-09-12T03:26:26.042Z,14.25
2022-09-12T03:28:55.074Z,14.55
2022-09-12T03:31:23.736Z,14.55
2022-09-12T03:33:52.012Z,14.26
2022-09-12T03:36:24.313Z,14.16
2022-09-12T03:38:53.406Z,13.89
2022-09-12T03:41:22.788Z,14.11
2022-09-12T03:43:50.971Z,14.33
2022-09-12T03:46:19.396Z,14.47
2022-09-12T03:48:47.980Z,14.41
2022-09-12T03:51:16.808Z,14.50
2022-09-12T03:53:45.968Z,14.66
2022-09-12T03:56:16.249Z,14.65
2022-09-12T03:58:44.393Z,14.77
2022-09-12T04:01:15.137Z,14.50
2022-09-12T04:03:49.491Z,14.72
2022-09-12T04:06:20.400Z,14.72
2022-09-12T04:08:50.717Z,14.62
2022-09-12T04:11:19.648Z,14.31
2022-09-12T04:13:48.101Z,14.22
2022-09-12T04:16:17.015Z,14.00
2022-09-12T04:18:45.484Z,14.19
2022-09-12T04:21:17.256Z,14.45
2022-09-12T04:23:45.980Z,14.78
2022-09-12T04:26:14.712Z,14.48
2022-09-12T04:28:42.660Z,14.46
2022-09-12T04:31:20.874Z,15.00
2022-09-12T04:33:53.910Z,14.49
2022-09-12T04:36:23.041Z,14.50
2022-09-12T04:38:51.320Z,14.60
2022-09-12T04:41:29.151Z,14.70
2022-09-12T04:44:02.566Z,15.02
2022-09-12T04:46:32.264Z,14.65
2022-09-12T04:49:00.371Z,14.99
2022-09-12T04:51:33.893Z,14.19
2022-09-12T04:54:04.869Z,14.83
2022-09-12T04:56:46.111Z,15.00
2022-09-12T04:59:53.157Z,14.28
2022-09-12T05:02:21.830Z,14.87
2022-09-12T05:04:50.859Z,15.10
2022-09-12T05:07:20.180Z,14.93
2022-09-12T05:09:49.480Z,14.91
2022-09-12T05:12:18.654Z,15.03
2022-09-12T05:14:47.689Z,15.19
2022-09-12T05:17:16.710Z,15.34
2022-09-12T05:19:45.419Z,15.54
2022-09-12T05:22:14.465Z,15.62
2022-09-12T05:24:47.279Z,15.97
2022-09-12T05:27:18.534Z,15.57
2022-09-12T05:29:47.169Z,15.81
2022-09-12T05:32:15.308Z,16.46
2022-09-12T05:34:43.845Z,16.41
2022-09-12T05:37:12.138Z,17.90
2022-09-12T05:39:41.021Z,17.05
2022-09-12T05:42:10.433Z,17.13
2022-09-12T05:44:38.938Z,17.13
2022-09-12T05:47:07.709Z,17.15
2022-09-12T05:49:50.338Z,17.01
2022-09-12T05:52:34.107Z,17.11
2022-09-12T05:55:24.085Z,17.08
2022-09-12T05:58:05.147Z,17.46
2022-09-12T06:00:35.109Z,18.01
2022-09-12T06:03:04.067Z,17.63
2022-09-12T06:05:33.413Z,17.58
2022-09-12T06:08:01.997Z,17.90
2022-09-12T06:10:31.326Z,17.87
2022-09-12T06:12:59.362Z,17.86
2022-09-12T06:15:28.537Z,18.02
2022-09-12T06:17:57.574Z,17.85
2022-09-12T06:20:26.567Z,18.55
2022-09-12T06:22:54.875Z,18.23
2022-09-12T06:25:23.712Z,18.30
2022-09-12T06:27:51.930Z,18.56
2022-09-12T06:30:24.765Z,18.42
2022-09-12T06:32:54.321Z,19.05
2022-09-12T06:35:24.113Z,19.35
2022-09-12T06:37:52.745Z,19.23
2022-09-12T06:40:23.606Z,19.37
2022-09-12T06:42:52.351Z,19.57
2022-09-12T06:45:29.164Z,19.96
2022-09-12T06:48:21.258Z,19.33
2022-09-12T06:51:14.115Z,19.04
2022-09-12T06:53:43.420Z,19.78
2022-09-12T06:56:38.900Z,19.83
2022-09-12T06:59:15.066Z,19.22
2022-09-12T07:04:35.029Z,20.31
2022-09-12T07:07:03.462Z,20.18
2022-09-12T07:09:31.597Z,20.34
2022-09-12T07:12:00.168Z,20.46
2022-09-12T07:14:29.351Z,20.38
2022-09-12T07:16:58.177Z,19.87
2022-09-12T07:19:26.569Z,19.61
2022-09-12T07:21:58.521Z,19.88
2022-09-12T07:24:28.910Z,20.32
2022-09-12T07:26:58.187Z,20.61
2022-09-12T07:29:42.615Z,21.08
2022-09-12T07:32:12.369Z,21.88
2022-09-12T07:34:40.200Z,21.17
2022-09-12T07:37:08.103Z,21.53
2022-09-12T07:39:36.752Z,21.71
2022-09-12T07:42:05.393Z,21.38
2022-09-12T07:44:33.919Z,21.23
2022-09-12T07:47:02.546Z,22.02
2022-09-12T07:49:31.526Z,21.62
2022-09-12T07:52:01.068Z,21.71
2022-09-12T07:54:30.418Z,22.32
2022-09-12T07:56:58.538Z,22.35
2022-09-12T07:59:48.908Z,22.55
2022-09-12T08:02:17.497Z,21.54
2022-09-12T08:04:48.246Z,21.81
2022-09-12T08:07:18.440Z,21.35
2022-09-12T08:09:59.932Z,21.93
2022-09-12T08:12:32.627Z,22.09
2022-09-12T08:15:01.389Z,21.53
2022-09-12T08:17:30.513Z,22.40
2022-09-12T08:19:59.752Z,22.48
2022-09-12T08:22:31.877Z,21.72
2022-09-12T08:25:00.702Z,21.26
2022-09-12T08:27:29.366Z,22.49
2022-09-12T08:29:57.474Z,22.47
2022-09-12T08:32:25.762Z,23.41
2022-09-12T08:34:54.194Z,23.09
2022-09-12T08:37:22.203Z,23.14
2022-09-12T08:39:50.542Z,23.06
2022-09-12T08:42:34.018Z,23.45
2022-09-12T08:45:21.119Z,23.11
2022-09-12T08:47:50.365Z,23.51
2022-09-12T08:50:20.421Z,23.03
2022-09-12T08:53:04.172Z,23.22
2022-09-12T08:55:37.965Z,23.23
2022-09-12T08:58:14.409Z,23.59
2022-09-12T09:01:21.134Z,23.70
2022-09-12T09:04:10.900Z,23.50
2022-09-12T09:07:00.887Z,23.63
2022-09-12T09:09:32.471Z,24.34
2022-09-12T09:12:49.030Z,24.18
2022-09-12T09:15:40.842Z,24.76
2022-09-12T09:18:24.590Z,22.97
2022-09-12T09:20:56.715Z,24.16
2022-09-12T09:23:28.558Z,23.96
2022-09-12T09:26:00.479Z,24.53
2022-09-12T09:28:39.816Z,24.59
2022-09-12T09:31:18.204Z,24.97
2022-09-12T09:33:51.983Z,24.72
2022-09-12T09:36:51.727Z,23.72
2022-09-12T09:39:31.670Z,25.04
2022-09-12T09:42:20.839Z,24.95
2022-09-12T09:44:49.543Z,24.99
2022-09-12T09:47:18.866Z,25.12
2022-09-12T09:49:48.053Z,24.99
2022-09-12T09:52:21.615Z,25.21
2022-09-12T09:54:54.570Z,25.32
2022-09-12T09:57:35.391Z,24.76
2022-09-12T10:00:22.393Z,24.77
2022-09-12T10:03:13.454Z,24.57
2022-09-12T10:06:07.522Z,23.71
2022-09-12T10:08:37.967Z,23.51
2022-09-12T10:11:15.705Z,24.35
2022-09-12T10:13:54.746Z,25.40
2022-09-12T10:16:38.269Z,25.35
2022-09-12T10:19:21.476Z,25.12
2022-09-12T10:28:00.933Z,23.19
2022-09-12T10:30:40.737Z,22.69
2022-09-12T10:33:13.651Z,22.07
2022-09-12T10:35:49.528Z,22.11
2022-09-12T10:38:26.561Z,21.71
2022-09-12T10:41:14.732Z,22.29
2022-09-12T10:43:42.744Z,21.94
2022-09-12T10:46:23.184Z,21.99
2022-09-12T10:49:22.770Z,21.18
2022-09-12T10:51:54.563Z,21.48
2022-09-12T10:54:27.202Z,21.47
2022-09-12T10:57:27.017Z,21.61
2022-09-12T11:00:31.321Z,21.38
2022-09-12T11:03:16.292Z,21.40
2022-09-12T11:05:47.353Z,21.77
2022-09-12T11:08:18.937Z,21.13
2022-09-12T11:10:54.687Z,20.90
2022-09-12T11:13:46.304Z,21.09
2022-09-12T11:16:36.527Z,21.29
2022-09-12T11:19:38.370Z,21.27
2022-09-12T11:22:19.843Z,20.67
2022-09-12T11:25:10.902Z,20.12
2022-09-12T11:28:01.735Z,20.39
2022-09-12T11:30:38.168Z,20.25
2022-09-12T11:33:24.816Z,20.63
2022-09-12T11:35:55.590Z,20.63
2022-09-12T11:38:46.135Z,20.43
2022-09-12T11:41:29.098Z,20.71
2022-09-12T11:44:04.952Z,20.63
2022-09-12T11:46:38.674Z,20.14
2022-09-12T11:49:18.116Z,19.91
2022-09-12T11:51:57.709Z,20.27
2022-09-12T11:55:00.764Z,20.11
2022-09-12T11:57:34.397Z,20.23
2022-09-12T12:00:38.763Z,20.06
2022-09-12T12:03:07.974Z,20.15
2022-09-12T12:05:56.188Z,20.43
2022-09-12T12:08:26.436Z,20.70
2022-09-12T12:11:00.674Z,20.82
2022-09-12T12:13:46.727Z,20.41
2022-09-12T12:16:16.090Z,20.81
2022-09-12T12:18:45.336Z,21.40
2022-09-12T12:24:34.485Z,21.72
2022-09-12T12:27:08.422Z,22.25
2022-09-12T12:29:50.257Z,22.76
2022-09-12T12:32:23.016Z,21.98
2022-09-12T12:35:03.077Z,21.80
2022-09-12T12:37:32.717Z,22.06
2022-09-12T12:40:24.920Z,21.15
2022-09-12T12:43:32.248Z,21.44
2022-09-12T12:46:24.922Z,21.30
2022-09-12T13:13:05.552Z,23.98
2022-09-12T13:15:37.465Z,23.98
2022-09-12T13:18:17.326Z,23.09
2022-09-12T13:20:54.126Z,23.35
2022-09-12T13:23:28.547Z,23.60
2022-09-12T13:26:01.759Z,24.16
2022-09-12T13:28:31.098Z,23.72
2022-09-12T13:31:31.022Z,23.52
2022-09-12T13:34:01.611Z,23.05
2022-09-12T13:36:48.801Z,23.72
2022-09-12T13:39:42.816Z,22.50
2022-09-12T13:42:21.455Z,23.72
2022-09-12T13:44:56.946Z,22.95
2022-09-12T13:47:32.863Z,23.65
2022-09-12T13:50:01.494Z,23.22
2022-09-12T13:52:35.421Z,22.80
2022-09-12T13:55:08.122Z,22.89
2022-09-12T13:57:48.199Z,23.67
2022-09-12T14:00:20.918Z,23.22
2022-09-12T14:02:50.659Z,23.50
2022-09-12T14:05:26.583Z,23.24
2022-09-12T14:07:59.073Z,23.05
2022-09-12T14:10:36.871Z,23.06
2022-09-12T14:13:21.034Z,23.19
2022-09-12T14:15:50.750Z,22.86
2022-09-12T14:18:36.576Z,22.44
2022-09-12T14:21:13.388Z,22.01
2022-09-12T14:23:43.607Z,23.01
2022-09-12T14:26:13.952Z,22.71
2022-09-12T14:28:43.952Z,22.86
2022-09-12T14:31:15.914Z,22.07
2022-09-12T14:33:52.435Z,21.95
2022-09-12T14:36:20.260Z,22.38
2022-09-12T14:38:51.124Z,22.21
2022-09-12T14:41:28.102Z,22.43
2022-09-12T14:44:00.753Z,22.57
2022-09-12T14:46:31.801Z,22.45
2022-09-12T14:49:09.873Z,22.52
2022-09-12T14:51:42.668Z,22.64
2022-09-12T14:54:30.005Z,22.30
2022-09-12T14:57:02.774Z,22.66
2022-09-12T14:59:39.779Z,23.09
2022-09-12T15:02:14.592Z,22.11
2022-09-12T15:04:48.795Z,21.80
2022-09-12T15:07:37.745Z,22.42
2022-09-12T15:10:36.521Z,22.04
2022-09-12T15:13:10.321Z,22.34
2022-09-12T15:15:39.788Z,22.13
2022-09-12T15:18:08.669Z,22.10
2022-09-12T15:20:39.332Z,22.09
2022-09-12T15:23:13.773Z,21.76
2022-09-12T15:25:42.186Z,21.80
2022-09-12T15:28:17.299Z,21.68
2022-09-12T15:30:45.777Z,21.43
2022-09-12T15:33:14.905Z,21.53
2022-09-12T15:35:42.992Z,22.06
2022-09-12T15:38:12.839Z,21.32
2022-09-12T15:40:43.125Z,21.38
2022-09-12T15:43:13.651Z,21.50
2022-09-12T15:45:43.425Z,21.11
2022-09-12T15:48:11.954Z,21.47
2022-09-12T15:50:41.816Z,21.31
2022-09-12T15:53:15.149Z,21.10
2022-09-12T15:55:43.145Z,21.29
2022-09-12T15:58:11.800Z,21.13
2022-09-12T16:00:40.088Z,21.44
2022-09-12T16:03:20.317Z,21.67
2022-09-12T16:05:48.123Z,21.09
2022-09-12T16:08:16.410Z,21.09
2022-09-12T16:10:44.718Z,20.64
2022-09-12T16:13:12.945Z,21.15
2022-09-12T16:15:41.036Z,21.17
2022-09-12T16:18:08.960Z,20.82
2022-09-12T16:20:40.207Z,20.63
2022-09-12T16:23:13.597Z,21.07
2022-09-12T16:25:42.058Z,20.65
2022-09-12T16:28:11.327Z,20.40
2022-09-12T16:30:39.377Z,20.59
2022-09-12T16:33:07.033Z,20.80
2022-09-12T16:35:35.297Z,20.57
2022-09-12T16:38:03.120Z,20.51
2022-09-12T16:40:31.737Z,20.49
2022-09-12T16:43:00.853Z,20.47
2022-09-12T16:45:29.149Z,20.15
2022-09-12T16:47:58.230Z,20.34
2022-09-12T16:50:27.384Z,20.23
2022-09-12T16:52:55.235Z,20.38
2022-09-12T16:55:23.574Z,19.86
2022-09-12T16:57:51.695Z,20.17
2022-09-12T17:00:20.444Z,20.20
2022-09-12T17:02:48.732Z,20.18
2022-09-12T17:05:17.004Z,19.63
2022-09-12T17:07:44.829Z,19.70
2022-09-12T17:10:12.646Z,19.63
2022-09-12T17:12:40.637Z,19.18
2022-09-12T17:15:08.638Z,19.35
2022-09-12T17:17:36.249Z,19.65
2022-09-12T17:20:04.668Z,19.66
2022-09-12T17:22:33.705Z,19.63
2022-09-12T17:25:01.518Z,19.30
2022-09-12T17:27:29.437Z,19.14
2022-09-12T17:29:56.967Z,19.49
2022-09-12T17:32:24.727Z,19.70
2022-09-12T17:34:55.689Z,19.20
2022-09-12T17:37:23.975Z,19.11
2022-09-12T17:39:52.027Z,18.64
2022-09-12T17:42:20.316Z,18.98
2022-09-12T17:44:48.096Z,18.94
2022-09-12T17:47:16.097Z,19.44
2022-09-12T17:49:45.726Z,19.02
2022-09-12T17:52:13.917Z,19.25
2022-09-12T17:54:42.776Z,19.13
2022-09-12T17:57:11.115Z,19.00
2022-09-12T17:59:38.948Z,19.29
2022-09-12T18:02:16.380Z,18.60
2022-09-12T18:04:46.226Z,18.53
2022-09-12T18:07:21.492Z,18.72
2022-09-12T18:09:51.448Z,18.77
2022-09-12T18:12:20.177Z,18.79
2022-09-12T18:14:47.961Z,18.55
2022-09-12T18:17:16.858Z,18.60
2022-09-12T18:19:44.707Z,18.76
2022-09-12T18:22:13.140Z,18.50
2022-09-12T18:24:41.583Z,18.33
2022-09-12T18:27:12.225Z,18.43
2022-09-12T18:29:40.384Z,18.65
2022-09-12T18:32:08.709Z,18.41
2022-09-12T18:34:36.846Z,18.25
2022-09-12T18:37:07.130Z,18.25
2022-09-12T18:39:35.167Z,18.04
2022-09-12T18:42:03.187Z,18.49
2022-09-12T18:44:31.276Z,18.19
2022-09-12T18:46:59.516Z,18.21
2022-09-12T18:49:27.327Z,18.19
2022-09-12T18:51:55.128Z,17.53
2022-09-12T18:54:23.399Z,17.52
2022-09-12T18:56:51.498Z,18.09
2022-09-12T18:59:19.637Z,17.43
2022-09-12T19:01:48.222Z,18.06
2022-09-12T19:04:16.810Z,18.14
2022-09-12T19:06:46.476Z,17.92
2022-09-12T19:09:17.471Z,17.62
2022-09-12T19:11:50.224Z,17.83
2022-09-12T19:14:23.470Z,17.74
2022-09-12T19:16:52.319Z,17.71
2022-09-12T19:19:21.407Z,17.48
2022-09-12T19:21:49.116Z,17.37
2022-09-12T19:24:17.406Z,16.90
2022-09-12T19:26:45.508Z,17.34
2022-09-12T19:29:14.470Z,17.32
2022-09-12T19:31:45.689Z,17.20
2022-09-12T19:34:14.129Z,17.06
2022-09-12T19:36:46.769Z,17.41
2022-09-12T19:39:17.439Z,16.83
2022-09-12T19:41:45.556Z,16.41
2022-09-12T19:44:13.699Z,16.17
2022-09-12T19:46:42.147Z,16.10
2022-09-12T19:49:11.980Z,16.29
2022-09-12T19:51:39.946Z,16.34
2022-09-12T19:54:08.178Z,17.24
2022-09-12T19:56:35.875Z,16.25
2022-09-12T19:59:03.565Z,16.97
2022-09-12T20:01:31.905Z,16.49
2022-09-12T20:04:00.536Z,16.20
2022-09-12T20:06:28.616Z,16.49
2022-09-12T20:08:56.452Z,15.79
2022-09-12T20:11:25.711Z,15.68
2022-09-12T20:13:53.530Z,15.80
2022-09-12T20:16:25.433Z,15.55
2022-09-12T20:19:14.016Z,15.64
2022-09-12T20:21:41.727Z,15.06
2022-09-12T20:24:14.026Z,14.34
2022-09-12T20:26:42.245Z,15.50
2022-09-12T20:29:10.809Z,15.53
2022-09-12T20:31:40.205Z,15.35
2022-09-12T20:34:08.936Z,15.08
2022-09-12T20:36:36.905Z,13.50
2022-09-12T20:39:05.878Z,13.58
2022-09-12T20:41:36.257Z,14.41
2022-09-12T20:44:04.477Z,14.07
2022-09-12T20:46:32.259Z,13.18
2022-09-12T20:49:00.032Z,13.46
2022-09-12T20:51:29.765Z,13.54
2022-09-12T20:53:59.365Z,13.78
2022-09-12T20:56:28.438Z,12.98
2022-09-12T20:58:56.657Z,13.08
2022-09-12T21:01:25.820Z,13.54
2022-09-12T21:03:53.838Z,13.88
2022-09-12T21:06:21.967Z,13.84
2022-09-12T21:08:50.356Z,13.70
2022-09-12T21:11:18.806Z,13.14
2022-09-12T21:13:47.101Z,12.94
2022-09-12T21:16:16.810Z,13.32
2022-09-12T21:18:44.596Z,12.87
2022-09-12T21:21:14.278Z,13.12
2022-09-12T21:23:42.347Z,12.80
2022-09-12T21:26:10.457Z,12.46
2022-09-12T21:28:38.698Z,12.98
2022-09-12T21:31:06.580Z,13.04
2022-09-12T21:33:34.335Z,12.72
2022-09-12T21:36:04.166Z,12.99
2022-09-12T21:38:32.326Z,12.45
2022-09-12T21:41:11.145Z,12.06
2022-09-12T21:43:39.493Z,12.20
2022-09-12T21:46:07.753Z,12.36
2022-09-12T21:48:36.206Z,11.70
2022-09-12T21:51:04.610Z,12.44
2022-09-12T21:53:32.328Z,12.25
2022-09-12T21:56:07.527Z,11.94
2022-09-12T21:58:36.516Z,12.26
2022-09-12T22:01:06.075Z,12.65
2022-09-12T22:03:34.119Z,12.81
2022-09-12T22:06:04.041Z,12.64
2022-09-12T22:08:33.157Z,12.93
2022-09-12T22:11:02.868Z,12.96
2022-09-12T22:13:33.817Z,12.99
2022-09-12T22:16:03.492Z,12.90
2022-09-12T22:18:38.297Z,12.68
2022-09-12T22:21:08.908Z,12.65
2022-09-12T22:23:55.545Z,12.73
2022-09-12T22:26:23.836Z,12.19
2022-09-12T22:28:51.597Z,12.46
2022-09-12T22:31:19.399Z,12.64
2022-09-12T22:33:48.786Z,12.18
2022-09-12T22:36:16.376Z,10.98
2022-09-12T22:38:44.086Z,12.26
2022-09-12T22:41:13.337Z,11.33
2022-09-12T22:43:41.384Z,11.51
2022-09-12T22:46:11.077Z,12.34
2022-09-12T22:48:39.425Z,12.44
2022-09-12T22:51:07.636Z,12.23
2022-09-12T22:53:35.755Z,12.20
2022-09-12T22:56:05.220Z,12.18
2022-09-12T22:58:34.366Z,11.75
2022-09-12T23:01:01.986Z,11.77
2022-09-12T23:03:30.118Z,12.17
2022-09-12T23:05:58.006Z,11.75
2022-09-12T23:08:29.791Z,11.79
2022-09-12T23:11:12.966Z,10.67
2022-09-12T23:13:43.257Z,10.34
2022-09-12T23:16:25.024Z,11.58
2022-09-12T23:18:53.006Z,12.14
2022-09-12T23:21:21.899Z,12.17
2022-09-12T23:23:49.583Z,11.89
2022-09-12T23:26:22.276Z,11.76
2022-09-12T23:28:52.957Z,11.37
2022-09-12T23:31:23.428Z,11.10
2022-09-12T23:33:55.688Z,11.65
2022-09-12T23:36:24.265Z,11.67
2022-09-12T23:38:52.322Z,11.33
2022-09-12T23:41:20.487Z,10.59
2022-09-12T23:43:48.754Z,10.84
2022-09-12T23:46:17.857Z,11.60
2022-09-12T23:48:45.802Z,11.30
2022-09-12T23:51:13.915Z,11.30
2022-09-12T23:53:42.018Z,11.65
2022-09-12T23:56:09.886Z,11.17
2022-09-12T23:58:37.577Z,10.60
